sensor_id;sensor_type;location;lat;lon;timestamp;pressure;altitude;pressure_sealevel;temperature;humidity
26531;BME280;14201;43.188;24.160;2022-08-14T00:01:41;98953.59;;;23.09;71.98
26531;BME280;14201;43.188;24.160;2022-08-14T00:04:07;98948.31;;;23.06;72.25
26531;BME280;14201;43.188;24.160;2022-08-14T00:06:32;98949.97;;;23.13;72.01
26531;BME280;14201;43.188;24.160;2022-08-14T00:08:57;98945.75;;;23.00;72.61
26531;BME280;14201;43.188;24.160;2022-08-14T00:11:23;98942.03;;;23.12;72.04
26531;BME280;14201;43.188;24.160;2022-08-14T00:13:48;98944.56;;;23.16;72.11
26531;BME280;14201;43.188;24.160;2022-08-14T00:16:13;98940.09;;;23.18;71.94
26531;BME280;14201;43.188;24.160;2022-08-14T00:18:39;98938.66;;;23.04;72.63
26531;BME280;14201;43.188;24.160;2022-08-14T00:21:05;98945.94;;;22.91;72.87
26531;BME280;14201;43.188;24.160;2022-08-14T00:23:31;98939.72;;;22.92;73.11
26531;BME280;14201;43.188;24.160;2022-08-14T00:25:57;98937.94;;;22.92;72.88
26531;BME280;14201;43.188;24.160;2022-08-14T00:28:22;98934.28;;;22.99;72.88
26531;BME280;14201;43.188;24.160;2022-08-14T00:30:51;98934.03;;;23.12;72.40
26531;BME280;14201;43.188;24.160;2022-08-14T00:33:17;98934.19;;;23.04;72.30
26531;BME280;14201;43.188;24.160;2022-08-14T00:35:43;98929.25;;;22.84;73.01
26531;BME280;14201;43.188;24.160;2022-08-14T00:38:09;98919.41;;;22.89;72.78
26531;BME280;14201;43.188;24.160;2022-08-14T00:40:34;98919.38;;;22.91;72.97
26531;BME280;14201;43.188;24.160;2022-08-14T00:43:00;98915.69;;;22.98;72.92
26531;BME280;14201;43.188;24.160;2022-08-14T00:45:26;98913.88;;;23.00;72.97
26531;BME280;14201;43.188;24.160;2022-08-14T00:47:51;98915.63;;;23.03;72.93
26531;BME280;14201;43.188;24.160;2022-08-14T00:50:18;98913.88;;;23.03;72.86
26531;BME280;14201;43.188;24.160;2022-08-14T00:52:44;98919.19;;;23.03;72.61
26531;BME280;14201;43.188;24.160;2022-08-14T00:55:10;98919.72;;;23.21;71.89
26531;BME280;14201;43.188;24.160;2022-08-14T00:57:36;98924.91;;;23.27;71.30
26531;BME280;14201;43.188;24.160;2022-08-14T01:00:08;98924.91;;;23.27;71.42
26531;BME280;14201;43.188;24.160;2022-08-14T01:02:36;98921.59;;;23.14;71.41
26531;BME280;14201;43.188;24.160;2022-08-14T01:05:03;98915.59;;;23.04;72.29
26531;BME280;14201;43.188;24.160;2022-08-14T01:07:32;98908.44;;;23.08;71.72
26531;BME280;14201;43.188;24.160;2022-08-14T01:09:58;98913.69;;;23.11;71.39
26531;BME280;14201;43.188;24.160;2022-08-14T01:12:25;98910.94;;;23.15;71.10
26531;BME280;14201;43.188;24.160;2022-08-14T01:14:51;98905.56;;;23.18;71.33
26531;BME280;14201;43.188;24.160;2022-08-14T01:17:20;98900.50;;;23.06;71.38
26531;BME280;14201;43.188;24.160;2022-08-14T01:19:45;98900.97;;;23.27;70.87
26531;BME280;14201;43.188;24.160;2022-08-14T01:22:29;98896.69;;;23.19;71.35
26531;BME280;14201;43.188;24.160;2022-08-14T01:24:54;98905.50;;;23.22;71.33
26531;BME280;14201;43.188;24.160;2022-08-14T01:27:21;98900.34;;;23.14;71.75
26531;BME280;14201;43.188;24.160;2022-08-14T01:29:48;98904.50;;;23.27;70.76
26531;BME280;14201;43.188;24.160;2022-08-14T01:32:14;98896.13;;;23.02;71.22
26531;BME280;14201;43.188;24.160;2022-08-14T01:34:42;98900.53;;;23.05;71.20
26531;BME280;14201;43.188;24.160;2022-08-14T01:37:08;98899.03;;;22.90;71.70
26531;BME280;14201;43.188;24.160;2022-08-14T01:39:34;98898.19;;;22.88;72.12
26531;BME280;14201;43.188;24.160;2022-08-14T01:42:00;98887.31;;;23.00;71.50
26531;BME280;14201;43.188;24.160;2022-08-14T01:44:27;98889.97;;;23.03;71.71
26531;BME280;14201;43.188;24.160;2022-08-14T01:46:57;98884.66;;;23.00;71.95
26531;BME280;14201;43.188;24.160;2022-08-14T01:49:23;98884.66;;;23.03;71.34
26531;BME280;14201;43.188;24.160;2022-08-14T01:51:49;98874.03;;;23.03;71.02
26531;BME280;14201;43.188;24.160;2022-08-14T01:54:18;98876.59;;;23.06;70.86
26531;BME280;14201;43.188;24.160;2022-08-14T01:56:46;98876.69;;;23.00;71.26
26531;BME280;14201;43.188;24.160;2022-08-14T01:59:20;98875.00;;;22.96;71.37
26531;BME280;14201;43.188;24.160;2022-08-14T02:01:50;98876.03;;;22.89;71.96
26531;BME280;14201;43.188;24.160;2022-08-14T02:04:16;98882.75;;;23.08;71.89
26531;BME280;14201;43.188;24.160;2022-08-14T02:06:43;98878.97;;;23.18;70.89
26531;BME280;14201;43.188;24.160;2022-08-14T02:09:09;98872.81;;;23.16;71.22
26531;BME280;14201;43.188;24.160;2022-08-14T02:11:34;98860.53;;;23.12;71.28
26531;BME280;14201;43.188;24.160;2022-08-14T02:16:28;98872.22;;;23.05;71.04
26531;BME280;14201;43.188;24.160;2022-08-14T02:18:58;98859.22;;;22.90;72.09
26531;BME280;14201;43.188;24.160;2022-08-14T02:21:24;98864.63;;;22.84;72.78
26531;BME280;14201;43.188;24.160;2022-08-14T02:23:51;98876.13;;;22.84;72.97
26531;BME280;14201;43.188;24.160;2022-08-14T02:26:18;98874.41;;;22.81;72.67
26531;BME280;14201;43.188;24.160;2022-08-14T02:28:44;98870.00;;;22.82;72.70
26531;BME280;14201;43.188;24.160;2022-08-14T02:31:11;98866.44;;;22.81;72.76
26531;BME280;14201;43.188;24.160;2022-08-14T02:33:37;98869.84;;;22.88;72.79
26531;BME280;14201;43.188;24.160;2022-08-14T02:36:02;98866.22;;;22.92;72.33
26531;BME280;14201;43.188;24.160;2022-08-14T02:38:28;98868.88;;;22.92;72.22
26531;BME280;14201;43.188;24.160;2022-08-14T02:40:55;98865.78;;;23.15;71.50
26531;BME280;14201;43.188;24.160;2022-08-14T02:43:21;98869.59;;;23.04;71.47
26531;BME280;14201;43.188;24.160;2022-08-14T02:45:46;98864.25;;;23.05;71.29
26531;BME280;14201;43.188;24.160;2022-08-14T02:48:13;98857.94;;;23.09;70.91
26531;BME280;14201;43.188;24.160;2022-08-14T02:50:39;98850.75;;;23.14;70.75
26531;BME280;14201;43.188;24.160;2022-08-14T02:53:07;98843.88;;;23.04;71.14
26531;BME280;14201;43.188;24.160;2022-08-14T02:55:32;98847.06;;;22.78;72.72
26531;BME280;14201;43.188;24.160;2022-08-14T02:57:58;98837.50;;;22.68;73.52
26531;BME280;14201;43.188;24.160;2022-08-14T03:00:23;98838.84;;;22.45;74.42
26531;BME280;14201;43.188;24.160;2022-08-14T03:02:49;98850.69;;;22.24;75.79
26531;BME280;14201;43.188;24.160;2022-08-14T03:05:15;98848.81;;;22.32;75.41
26531;BME280;14201;43.188;24.160;2022-08-14T03:07:41;98851.50;;;22.29;75.50
26531;BME280;14201;43.188;24.160;2022-08-14T03:10:07;98845.06;;;22.42;74.90
26531;BME280;14201;43.188;24.160;2022-08-14T03:12:34;98853.00;;;22.46;74.70
26531;BME280;14201;43.188;24.160;2022-08-14T03:15:00;98853.88;;;22.45;74.78
26531;BME280;14201;43.188;24.160;2022-08-14T03:17:30;98852.56;;;22.67;73.76
26531;BME280;14201;43.188;24.160;2022-08-14T03:19:55;98855.25;;;22.66;73.69
26531;BME280;14201;43.188;24.160;2022-08-14T03:22:21;98856.91;;;22.71;73.34
26531;BME280;14201;43.188;24.160;2022-08-14T03:24:46;98865.88;;;22.64;73.60
26531;BME280;14201;43.188;24.160;2022-08-14T03:27:12;98860.16;;;22.40;74.54
26531;BME280;14201;43.188;24.160;2022-08-14T03:29:38;98865.81;;;22.17;75.44
26531;BME280;14201;43.188;24.160;2022-08-14T03:32:04;98867.41;;;21.75;77.21
26531;BME280;14201;43.188;24.160;2022-08-14T03:34:30;98873.78;;;21.63;78.24
26531;BME280;14201;43.188;24.160;2022-08-14T03:36:55;98875.75;;;21.50;78.87
26531;BME280;14201;43.188;24.160;2022-08-14T03:39:22;98873.75;;;21.65;78.58
26531;BME280;14201;43.188;24.160;2022-08-14T03:41:48;98872.88;;;21.66;78.18
26531;BME280;14201;43.188;24.160;2022-08-14T03:44:14;98873.78;;;21.63;78.43
26531;BME280;14201;43.188;24.160;2022-08-14T03:46:39;98875.00;;;21.39;79.66
26531;BME280;14201;43.188;24.160;2022-08-14T03:49:07;98872.38;;;21.36;80.03
26531;BME280;14201;43.188;24.160;2022-08-14T03:51:34;98863.53;;;21.38;80.34
26531;BME280;14201;43.188;24.160;2022-08-14T03:54:01;98865.97;;;21.54;79.76
26531;BME280;14201;43.188;24.160;2022-08-14T03:56:28;98867.09;;;21.34;80.57
26531;BME280;14201;43.188;24.160;2022-08-14T03:58:57;98869.91;;;21.23;81.30
26531;BME280;14201;43.188;24.160;2022-08-14T04:01:24;98867.84;;;21.47;80.82
26531;BME280;14201;43.188;24.160;2022-08-14T04:03:51;98867.75;;;21.53;79.99
26531;BME280;14201;43.188;24.160;2022-08-14T04:06:17;98868.06;;;21.29;81.13
26531;BME280;14201;43.188;24.160;2022-08-14T04:08:44;98878.06;;;21.05;82.52
26531;BME280;14201;43.188;24.160;2022-08-14T04:11:10;98876.47;;;20.92;83.66
26531;BME280;14201;43.188;24.160;2022-08-14T04:13:36;98879.09;;;20.92;84.04
26531;BME280;14201;43.188;24.160;2022-08-14T04:16:02;98880.84;;;20.96;83.63
26531;BME280;14201;43.188;24.160;2022-08-14T04:18:28;98882.75;;;20.84;84.15
26531;BME280;14201;43.188;24.160;2022-08-14T04:20:54;98879.16;;;20.90;84.21
26531;BME280;14201;43.188;24.160;2022-08-14T04:23:22;98883.50;;;20.96;84.14
26531;BME280;14201;43.188;24.160;2022-08-14T04:25:48;98879.94;;;20.98;83.61
26531;BME280;14201;43.188;24.160;2022-08-14T04:28:18;98888.13;;;20.77;84.95
26531;BME280;14201;43.188;24.160;2022-08-14T04:30:43;98879.19;;;20.85;84.96
26531;BME280;14201;43.188;24.160;2022-08-14T04:33:08;98888.91;;;20.87;84.25
26531;BME280;14201;43.188;24.160;2022-08-14T04:35:34;98886.31;;;20.80;84.52
26531;BME280;14201;43.188;24.160;2022-08-14T04:38:00;98891.53;;;20.88;84.35
26531;BME280;14201;43.188;24.160;2022-08-14T04:40:48;98892.41;;;20.89;84.13
26531;BME280;14201;43.188;24.160;2022-08-14T04:43:32;98903.59;;;21.12;83.64
26531;BME280;14201;43.188;24.160;2022-08-14T04:46:01;98894.41;;;21.38;82.89
26531;BME280;14201;43.188;24.160;2022-08-14T04:48:26;98895.94;;;21.57;81.10
26531;BME280;14201;43.188;24.160;2022-08-14T04:50:52;98889.53;;;21.74;81.15
26531;BME280;14201;43.188;24.160;2022-08-14T04:53:19;98883.25;;;21.81;80.38
26531;BME280;14201;43.188;24.160;2022-08-14T04:55:45;98890.16;;;21.91;80.39
26531;BME280;14201;43.188;24.160;2022-08-14T04:58:13;98895.44;;;21.91;79.82
26531;BME280;14201;43.188;24.160;2022-08-14T05:00:38;98895.31;;;22.00;79.66
26531;BME280;14201;43.188;24.160;2022-08-14T05:03:04;98894.25;;;22.11;78.67
26531;BME280;14201;43.188;24.160;2022-08-14T05:05:30;98893.59;;;21.96;78.72
26531;BME280;14201;43.188;24.160;2022-08-14T05:08:02;98900.44;;;22.10;78.60
26531;BME280;14201;43.188;24.160;2022-08-14T05:10:30;98903.44;;;21.88;79.14
26531;BME280;14201;43.188;24.160;2022-08-14T05:12:55;98903.53;;;21.82;79.02
26531;BME280;14201;43.188;24.160;2022-08-14T05:15:21;98913.19;;;21.86;79.35
26531;BME280;14201;43.188;24.160;2022-08-14T05:17:46;98907.03;;;21.84;79.63
26531;BME280;14201;43.188;24.160;2022-08-14T05:20:13;98919.56;;;21.73;80.67
26531;BME280;14201;43.188;24.160;2022-08-14T05:22:39;98923.34;;;21.58;83.01
26531;BME280;14201;43.188;24.160;2022-08-14T05:25:04;98924.34;;;21.48;85.57
26531;BME280;14201;43.188;24.160;2022-08-14T05:27:30;98926.44;;;21.21;87.99
26531;BME280;14201;43.188;24.160;2022-08-14T05:29:55;98920.16;;;21.27;89.82
26531;BME280;14201;43.188;24.160;2022-08-14T05:32:21;98926.63;;;21.06;91.69
26531;BME280;14201;43.188;24.160;2022-08-14T05:34:47;98930.56;;;21.45;88.64
26531;BME280;14201;43.188;24.160;2022-08-14T05:37:12;98919.88;;;21.53;88.96
26531;BME280;14201;43.188;24.160;2022-08-14T05:39:39;98927.97;;;21.39;91.45
26531;BME280;14201;43.188;24.160;2022-08-14T05:42:05;98932.72;;;21.14;93.85
26531;BME280;14201;43.188;24.160;2022-08-14T05:44:31;98935.47;;;21.03;95.38
26531;BME280;14201;43.188;24.160;2022-08-14T05:46:57;98942.44;;;21.10;95.96
26531;BME280;14201;43.188;24.160;2022-08-14T05:49:22;98932.75;;;21.09;96.79
26531;BME280;14201;43.188;24.160;2022-08-14T05:51:48;98933.88;;;20.88;96.82
26531;BME280;14201;43.188;24.160;2022-08-14T05:54:13;98935.28;;;21.20;95.51
26531;BME280;14201;43.188;24.160;2022-08-14T05:56:38;98935.84;;;21.47;93.35
26531;BME280;14201;43.188;24.160;2022-08-14T05:59:04;98935.00;;;21.45;93.28
26531;BME280;14201;43.188;24.160;2022-08-14T06:01:29;98927.84;;;21.51;93.43
26531;BME280;14201;43.188;24.160;2022-08-14T06:03:55;98919.69;;;21.65;94.27
26531;BME280;14201;43.188;24.160;2022-08-14T06:06:20;98930.03;;;21.83;90.55
26531;BME280;14201;43.188;24.160;2022-08-14T06:08:46;98935.09;;;22.00;87.19
26531;BME280;14201;43.188;24.160;2022-08-14T06:11:11;98930.09;;;21.79;89.70
26531;BME280;14201;43.188;24.160;2022-08-14T06:13:38;98934.84;;;21.54;93.30
26531;BME280;14201;43.188;24.160;2022-08-14T06:16:04;98936.75;;;21.46;94.17
26531;BME280;14201;43.188;24.160;2022-08-14T06:18:29;98940.50;;;21.24;94.45
26531;BME280;14201;43.188;24.160;2022-08-14T06:20:55;98941.22;;;21.40;93.60
26531;BME280;14201;43.188;24.160;2022-08-14T06:23:20;98936.69;;;21.50;91.98
26531;BME280;14201;43.188;24.160;2022-08-14T06:25:46;98936.44;;;21.67;90.78
26531;BME280;14201;43.188;24.160;2022-08-14T06:28:19;98924.88;;;21.73;91.20
26531;BME280;14201;43.188;24.160;2022-08-14T06:30:45;98921.22;;;21.83;91.98
26531;BME280;14201;43.188;24.160;2022-08-14T06:33:11;98917.28;;;21.48;96.30
26531;BME280;14201;43.188;24.160;2022-08-14T06:35:37;98902.03;;;21.66;95.69
26531;BME280;14201;43.188;24.160;2022-08-14T06:38:03;98911.72;;;21.67;95.51
26531;BME280;14201;43.188;24.160;2022-08-14T06:40:31;98910.97;;;21.57;95.98
26531;BME280;14201;43.188;24.160;2022-08-14T06:42:59;98909.94;;;21.67;96.30
26531;BME280;14201;43.188;24.160;2022-08-14T06:45:26;98924.00;;;21.74;96.62
26531;BME280;14201;43.188;24.160;2022-08-14T06:47:52;98916.53;;;22.00;93.79
26531;BME280;14201;43.188;24.160;2022-08-14T06:50:20;98920.94;;;22.00;94.23
26531;BME280;14201;43.188;24.160;2022-08-14T06:52:46;98927.03;;;22.07;95.17
26531;BME280;14201;43.188;24.160;2022-08-14T06:55:13;98920.38;;;21.81;96.11
26531;BME280;14201;43.188;24.160;2022-08-14T06:57:42;98930.03;;;21.85;96.66
26531;BME280;14201;43.188;24.160;2022-08-14T07:00:30;98935.94;;;22.02;95.66
26531;BME280;14201;43.188;24.160;2022-08-14T07:02:55;98946.56;;;22.01;95.84
26531;BME280;14201;43.188;24.160;2022-08-14T07:05:40;98944.69;;;22.08;95.96
26531;BME280;14201;43.188;24.160;2022-08-14T07:08:19;98940.66;;;21.80;98.39
26531;BME280;14201;43.188;24.160;2022-08-14T07:10:49;98948.94;;;21.57;96.76
26531;BME280;14201;43.188;24.160;2022-08-14T07:13:15;98954.00;;;21.76;97.75
26531;BME280;14201;43.188;24.160;2022-08-14T07:15:45;98954.75;;;21.86;97.50
26531;BME280;14201;43.188;24.160;2022-08-14T07:18:19;98970.41;;;22.02;97.04
26531;BME280;14201;43.188;24.160;2022-08-14T07:20:45;98971.75;;;21.71;94.86
26531;BME280;14201;43.188;24.160;2022-08-14T07:23:11;98977.97;;;21.68;98.88
26531;BME280;14201;43.188;24.160;2022-08-14T07:25:38;98978.00;;;21.65;97.89
26531;BME280;14201;43.188;24.160;2022-08-14T07:28:22;98984.13;;;21.72;97.69
26531;BME280;14201;43.188;24.160;2022-08-14T07:30:50;98980.44;;;21.80;96.65
26531;BME280;14201;43.188;24.160;2022-08-14T07:33:17;98963.66;;;21.81;95.21
26531;BME280;14201;43.188;24.160;2022-08-14T07:35:43;98974.06;;;21.95;95.01
26531;BME280;14201;43.188;24.160;2022-08-14T07:38:16;98983.38;;;22.21;94.32
26531;BME280;14201;43.188;24.160;2022-08-14T07:40:42;98977.00;;;22.34;92.01
26531;BME280;14201;43.188;24.160;2022-08-14T07:43:08;98984.31;;;22.18;92.01
26531;BME280;14201;43.188;24.160;2022-08-14T07:45:33;98973.13;;;21.96;94.98
26531;BME280;14201;43.188;24.160;2022-08-14T07:47:59;98964.88;;;22.18;93.53
26531;BME280;14201;43.188;24.160;2022-08-14T07:50:25;98956.25;;;22.03;94.16
26531;BME280;14201;43.188;24.160;2022-08-14T07:55:17;98969.19;;;22.23;92.10
26531;BME280;14201;43.188;24.160;2022-08-14T07:57:44;98976.81;;;22.47;90.40
26531;BME280;14201;43.188;24.160;2022-08-14T08:00:14;98974.91;;;22.55;88.50
26531;BME280;14201;43.188;24.160;2022-08-14T08:02:42;98988.41;;;22.41;88.30
26531;BME280;14201;43.188;24.160;2022-08-14T08:05:10;98993.50;;;22.55;88.64
26531;BME280;14201;43.188;24.160;2022-08-14T08:07:37;98988.28;;;22.49;88.36
26531;BME280;14201;43.188;24.160;2022-08-14T08:10:09;98984.75;;;22.48;89.58
26531;BME280;14201;43.188;24.160;2022-08-14T08:12:54;99002.63;;;22.37;89.35
26531;BME280;14201;43.188;24.160;2022-08-14T08:15:20;98998.25;;;22.33;91.14
26531;BME280;14201;43.188;24.160;2022-08-14T08:17:46;99001.63;;;22.44;91.80
26531;BME280;14201;43.188;24.160;2022-08-14T08:20:15;99010.34;;;21.90;95.69
26531;BME280;14201;43.188;24.160;2022-08-14T08:22:41;99024.66;;;21.80;95.73
26531;BME280;14201;43.188;24.160;2022-08-14T08:25:07;99030.56;;;22.00;93.97
26531;BME280;14201;43.188;24.160;2022-08-14T08:27:33;99033.16;;;22.03;93.94
26531;BME280;14201;43.188;24.160;2022-08-14T08:30:06;99036.22;;;21.74;96.21
26531;BME280;14201;43.188;24.160;2022-08-14T08:32:40;99029.78;;;21.92;94.70
26531;BME280;14201;43.188;24.160;2022-08-14T08:35:09;99013.56;;;22.14;95.05
26531;BME280;14201;43.188;24.160;2022-08-14T08:37:35;99002.16;;;22.09;97.10
26531;BME280;14201;43.188;24.160;2022-08-14T08:40:01;99001.88;;;22.29;97.14
26531;BME280;14201;43.188;24.160;2022-08-14T08:42:26;98984.88;;;22.40;94.00
26531;BME280;14201;43.188;24.160;2022-08-14T08:44:55;98994.06;;;22.18;96.58
26531;BME280;14201;43.188;24.160;2022-08-14T08:47:20;98997.78;;;22.05;94.90
26531;BME280;14201;43.188;24.160;2022-08-14T08:49:46;98998.03;;;21.86;98.09
26531;BME280;14201;43.188;24.160;2022-08-14T08:52:11;98997.59;;;22.17;96.42
26531;BME280;14201;43.188;24.160;2022-08-14T08:54:37;98989.34;;;22.37;95.35
26531;BME280;14201;43.188;24.160;2022-08-14T08:57:09;98979.63;;;22.37;93.70
26531;BME280;14201;43.188;24.160;2022-08-14T08:59:35;98978.78;;;22.35;93.55
26531;BME280;14201;43.188;24.160;2022-08-14T09:02:01;98972.78;;;22.21;95.45
26531;BME280;14201;43.188;24.160;2022-08-14T09:04:28;98965.25;;;21.92;97.44
26531;BME280;14201;43.188;24.160;2022-08-14T09:06:54;98956.75;;;22.30;96.81
26531;BME280;14201;43.188;24.160;2022-08-14T09:09:27;98944.22;;;22.38;95.73
26531;BME280;14201;43.188;24.160;2022-08-14T09:11:53;98931.59;;;22.53;94.93
26531;BME280;14201;43.188;24.160;2022-08-14T09:14:20;98923.53;;;22.57;94.85
26531;BME280;14201;43.188;24.160;2022-08-14T09:16:46;98915.44;;;22.65;95.87
26531;BME280;14201;43.188;24.160;2022-08-14T09:19:11;98912.53;;;22.79;94.92
26531;BME280;14201;43.188;24.160;2022-08-14T09:21:37;98909.72;;;22.87;92.51
26531;BME280;14201;43.188;24.160;2022-08-14T09:24:03;98917.50;;;22.96;90.81
26531;BME280;14201;43.188;24.160;2022-08-14T09:26:29;98919.19;;;23.02;90.20
26531;BME280;14201;43.188;24.160;2022-08-14T09:28:55;98919.94;;;23.08;89.21
26531;BME280;14201;43.188;24.160;2022-08-14T09:31:21;98922.75;;;22.99;89.50
26531;BME280;14201;43.188;24.160;2022-08-14T09:33:51;98918.97;;;23.12;87.85
26531;BME280;14201;43.188;24.160;2022-08-14T09:36:33;98918.06;;;23.15;87.37
26531;BME280;14201;43.188;24.160;2022-08-14T09:46:54;98923.69;;;22.96;90.45
26531;BME280;14201;43.188;24.160;2022-08-14T09:49:30;98927.63;;;22.75;91.48
26531;BME280;14201;43.188;24.160;2022-08-14T09:52:10;98923.63;;;22.53;94.96
26531;BME280;14201;43.188;24.160;2022-08-14T09:54:36;98931.22;;;22.74;93.48
26531;BME280;14201;43.188;24.160;2022-08-14T09:57:02;98938.03;;;22.39;95.56
26531;BME280;14201;43.188;24.160;2022-08-14T09:59:37;98937.44;;;22.19;96.27
26531;BME280;14201;43.188;24.160;2022-08-14T10:02:03;98934.41;;;22.44;96.04
26531;BME280;14201;43.188;24.160;2022-08-14T10:04:31;98937.06;;;22.44;95.14
26531;BME280;14201;43.188;24.160;2022-08-14T10:06:56;98937.66;;;22.05;96.47
26531;BME280;14201;43.188;24.160;2022-08-14T10:09:22;98937.69;;;22.02;98.94
26531;BME280;14201;43.188;24.160;2022-08-14T10:11:55;98934.66;;;22.28;99.20
26531;BME280;14201;43.188;24.160;2022-08-14T10:14:22;98937.38;;;22.25;98.79
26531;BME280;14201;43.188;24.160;2022-08-14T10:16:54;98934.41;;;22.44;97.46
26531;BME280;14201;43.188;24.160;2022-08-14T10:19:26;98935.09;;;22.55;95.80
26531;BME280;14201;43.188;24.160;2022-08-14T10:22:03;98935.75;;;22.66;96.96
26531;BME280;14201;43.188;24.160;2022-08-14T10:24:36;98938.16;;;22.32;97.79
26531;BME280;14201;43.188;24.160;2022-08-14T10:27:12;98936.50;;;22.21;99.32
26531;BME280;14201;43.188;24.160;2022-08-14T10:29:41;98935.41;;;22.36;97.52
26531;BME280;14201;43.188;24.160;2022-08-14T10:32:07;98936.13;;;22.46;95.03
26531;BME280;14201;43.188;24.160;2022-08-14T10:34:36;98945.66;;;22.58;97.13
26531;BME280;14201;43.188;24.160;2022-08-14T10:37:07;98943.06;;;22.55;96.51
26531;BME280;14201;43.188;24.160;2022-08-14T10:39:35;98946.38;;;22.66;95.46
26531;BME280;14201;43.188;24.160;2022-08-14T10:42:02;98943.53;;;22.78;94.20
26531;BME280;14201;43.188;24.160;2022-08-14T10:44:36;98946.91;;;22.87;92.59
26531;BME280;14201;43.188;24.160;2022-08-14T10:47:03;98945.88;;;22.94;91.80
26531;BME280;14201;43.188;24.160;2022-08-14T10:49:34;98939.47;;;23.07;92.80
26531;BME280;14201;43.188;24.160;2022-08-14T10:52:04;98946.72;;;22.97;94.11
26531;BME280;14201;43.188;24.160;2022-08-14T10:54:37;98949.28;;;23.00;94.68
26531;BME280;14201;43.188;24.160;2022-08-14T10:57:10;98946.00;;;22.88;95.25
26531;BME280;14201;43.188;24.160;2022-08-14T10:59:46;98956.09;;;23.17;93.82
26531;BME280;14201;43.188;24.160;2022-08-14T11:02:24;98954.19;;;23.24;93.62
26531;BME280;14201;43.188;24.160;2022-08-14T11:04:57;98958.81;;;23.14;92.56
26531;BME280;14201;43.188;24.160;2022-08-14T11:07:23;98955.16;;;23.19;93.72
26531;BME280;14201;43.188;24.160;2022-08-14T11:09:59;98945.16;;;23.32;93.41
26531;BME280;14201;43.188;24.160;2022-08-14T11:12:25;98944.91;;;23.43;92.14
26531;BME280;14201;43.188;24.160;2022-08-14T11:14:52;98944.75;;;23.51;90.74
26531;BME280;14201;43.188;24.160;2022-08-14T11:17:17;98946.44;;;23.55;89.06
26531;BME280;14201;43.188;24.160;2022-08-14T11:19:43;98946.44;;;23.55;88.41
26531;BME280;14201;43.188;24.160;2022-08-14T11:22:09;98934.94;;;23.54;89.23
26531;BME280;14201;43.188;24.160;2022-08-14T11:24:36;98934.88;;;23.57;89.55
26531;BME280;14201;43.188;24.160;2022-08-14T11:27:03;98933.78;;;23.66;88.56
26531;BME280;14201;43.188;24.160;2022-08-14T11:29:30;98934.88;;;23.57;89.38
26531;BME280;14201;43.188;24.160;2022-08-14T11:31:56;98934.88;;;23.57;89.58
26531;BME280;14201;43.188;24.160;2022-08-14T11:34:23;98940.25;;;23.54;89.53
26531;BME280;14201;43.188;24.160;2022-08-14T11:36:48;98943.59;;;23.63;89.46
26531;BME280;14201;43.188;24.160;2022-08-14T11:39:17;98938.44;;;23.55;88.67
26531;BME280;14201;43.188;24.160;2022-08-14T11:41:43;98944.56;;;23.60;89.81
26531;BME280;14201;43.188;24.160;2022-08-14T11:44:10;98947.19;;;23.62;89.02
26531;BME280;14201;43.188;24.160;2022-08-14T11:46:35;98956.06;;;23.61;89.05
26531;BME280;14201;43.188;24.160;2022-08-14T11:49:01;98945.19;;;23.71;89.47
26531;BME280;14201;43.188;24.160;2022-08-14T11:51:27;98949.44;;;23.80;89.27
26531;BME280;14201;43.188;24.160;2022-08-14T11:53:54;98944.91;;;23.85;88.55
26531;BME280;14201;43.188;24.160;2022-08-14T11:56:20;98940.06;;;23.62;88.34
26531;BME280;14201;43.188;24.160;2022-08-14T11:58:49;98934.91;;;23.56;89.68
26531;BME280;14201;43.188;24.160;2022-08-14T12:01:15;98944.84;;;23.48;89.45
26531;BME280;14201;43.188;24.160;2022-08-14T12:03:44;98942.41;;;23.35;89.34
26531;BME280;14201;43.188;24.160;2022-08-14T12:06:14;98939.78;;;23.34;90.87
26531;BME280;14201;43.188;24.160;2022-08-14T12:08:40;98940.84;;;23.27;88.80
26531;BME280;14201;43.188;24.160;2022-08-14T12:11:08;98943.78;;;23.13;88.24
26531;BME280;14201;43.188;24.160;2022-08-14T12:13:34;98937.69;;;23.06;89.23
26531;BME280;14201;43.188;24.160;2022-08-14T12:16:04;98938.19;;;22.80;90.20
26531;BME280;14201;43.188;24.160;2022-08-14T12:18:32;98926.88;;;22.69;93.64
26531;BME280;14201;43.188;24.160;2022-08-14T12:21:09;98939.84;;;22.86;91.77
26531;BME280;14201;43.188;24.160;2022-08-14T12:23:34;98938.75;;;22.97;90.98
26531;BME280;14201;43.188;24.160;2022-08-14T12:26:03;98931.63;;;22.99;90.08
26531;BME280;14201;43.188;24.160;2022-08-14T12:28:29;98931.34;;;23.15;90.63
26531;BME280;14201;43.188;24.160;2022-08-14T12:30:55;98926.72;;;23.25;88.84
26531;BME280;14201;43.188;24.160;2022-08-14T12:35:49;98933.69;;;23.30;87.93
26531;BME280;14201;43.188;24.160;2022-08-14T12:38:15;98935.22;;;23.42;88.36
26531;BME280;14201;43.188;24.160;2022-08-14T12:40:51;98932.38;;;23.50;85.84
26531;BME280;14201;43.188;24.160;2022-08-14T12:43:17;98933.97;;;23.57;85.87
26531;BME280;14201;43.188;24.160;2022-08-14T12:45:50;98930.16;;;23.69;87.43
26531;BME280;14201;43.188;24.160;2022-08-14T12:48:19;98925.47;;;23.83;86.39
26531;BME280;14201;43.188;24.160;2022-08-14T12:50:45;98929.13;;;24.15;85.53
26531;BME280;14201;43.188;24.160;2022-08-14T12:53:11;98923.63;;;24.21;83.90
26531;BME280;14201;43.188;24.160;2022-08-14T12:55:37;98933.84;;;24.40;84.16
26531;BME280;14201;43.188;24.160;2022-08-14T12:58:05;98919.81;;;24.67;83.45
26531;BME280;14201;43.188;24.160;2022-08-14T13:00:31;98918.91;;;24.70;81.88
26531;BME280;14201;43.188;24.160;2022-08-14T13:02:58;98908.44;;;24.62;82.11
26531;BME280;14201;43.188;24.160;2022-08-14T13:05:25;98910.94;;;24.68;80.80
26531;BME280;14201;43.188;24.160;2022-08-14T13:07:50;98915.72;;;24.88;80.32